Flight Track Log - Related Links

Times and Time Zones

All times are in EDT time to prevent confusion due to time zone crossing. See the EJA922 flight status page for this flight to view local times or setup timezone preferences in your user account.

Time Position Orientation Groundspeed Altitude Reporting Facility
EDT Latitude Longitude Course Direction KTS MPH feet Rate Location/Type
Wed 09:50:05 AM 30.4889 -91.1931 226° Southwest 232 267 3,500  Level Houston Center
Wed 09:51:07 AM 30.4347 -91.2469 221° Southwest 250 288 7,900 3,435 Climbing Houston Center
Wed 09:52:09 AM 30.3717 -91.3122 222° Southwest 304 350 10,600 2,880 Climbing Houston Center
Wed 09:53:12 AM 30.2969 -91.3919 223° Southwest 357 411 13,900 2,928 Climbing Houston Center
Wed 09:54:14 AM 30.2158 -91.4764 222° Southwest 386 444 16,700 2,468 Climbing Houston Center
Wed 09:55:00 AM 30.3607 -91.7737 226° Southwest  Level FlightAware Approximate
Wed 09:55:16 AM 30.1447 -91.5708 229° Southwest 396 456 19,000  Level Houston Center
Wed 09:56:18 AM 30.0894 -91.7067 245° Southwest 392 451 21,200 1,694 Climbing Houston Center
Wed 09:57:20 AM 30.0394 -91.8311 245° Southwest 402 463 22,500 1,113 Climbing Houston Center
Wed 09:58:22 AM 29.9897 -91.9547 245° Southwest 422 486 23,500 1,016 Climbing Houston Center
Wed 09:59:24 AM 29.9375 -92.0822 245° Southwest 436 502 24,600 1,016 Climbing Houston Center
Wed 10:00:26 AM 29.8828 -92.2133 244° Southwest 450 518 25,600 672 Climbing Houston Center
Wed 10:01:29 AM 29.8264 -92.3467 244° Southwest 461 531 26,000 192 Climbing Houston Center
Wed 10:02:31 AM 29.7672 -92.4872 244° Southwest 482 555 26,000  Level Houston Center
Wed 10:03:33 AM 29.6950 -92.6603 244° Southwest 497 572 26,000  Level Houston Center
Wed 10:04:35 AM 29.6333 -92.8058 244° Southwest 503 579 26,000  Level Houston Center
Wed 10:05:37 AM 29.5725 -92.9486 244° Southwest 498 573 26,000  Level Houston Center
Wed 10:06:39 AM 29.5128 -93.0894 244° Southwest 492 566 26,000  Level Houston Center
Wed 10:07:41 AM 29.4528 -93.2306 244° Southwest 491 565 26,000  Level Houston Center
Wed 10:08:43 AM 29.3950 -93.3664 244° Southwest 478 550 26,000  Level Houston Center
Wed 10:09:46 AM 29.3361 -93.5019 244° Southwest 475 547 26,000 -288 Level Houston Center
Wed 10:10:48 AM 29.2681 -93.6661 245° Southwest 475 547 25,400 -1,548 Descending Houston Center
Wed 10:11:50 AM 29.2619 -93.8222 267° West 495 570 22,800 -2,419 Descending Houston Center
Wed 10:12:52 AM 29.2633 -93.9669 271° West 485 558 20,400 -2,710 Descending Houston Center
Wed 10:13:54 AM 29.2656 -94.1106 271° West 460 529 17,200 -3,471 Descending Houston Center
Wed 10:14:34 AM 29.2661 -94.2289 270° West 433 498 14,500 -3,032 Descending Houston Center
Wed 10:15:29 AM 29.2664 -94.3558 270° West 437 503 12,400 -1,282 Descending Houston Center
Wed 10:16:31 AM 29.2697 -94.4753 272° West 347 399 12,000 -195 Descending Houston Center
Wed 10:17:32 AM 29.3083 -94.5686 295° West 311 358 12,000  Level Houston Center
Wed 10:18:03 AM 29.3261 -94.6047 299° West 320 368 12,000 -590 Level Houston Center
Wed 10:18:33 AM 29.3531 -94.6614 299° West 317 365 11,400 -1,065 Descending Houston Center
Wed 10:19:05 AM 29.3692 -94.6906 302° West 313 360 10,900 -1,085 Descending Houston Center
Wed 10:20:07 AM 29.4089 -94.7731 299° West 298 343 9,700 -1,258 Descending Houston Center
Wed 10:21:09 AM 29.4575 -94.8717 300° West 296 341 8,300 -1,389 Descending Houston Center
Wed 10:21:42 AM 29.4811 -94.9211 299° West 292 336 7,500 -1,281 Descending Houston Center
Wed 10:22:38 AM 29.5153 -94.9914 299° West 286 329 6,400 -989 Descending Houston Center
Wed 10:23:13 AM 29.5361 -95.0314 301° West 287 330 6,000 -247 Descending Houston Center
Wed 10:24:15 AM 29.5750 -95.1119 299° West 287 330 6,000  Level Houston Center
Wed 10:25:17 AM 29.6036 -95.2000 291° West 280 322 6,000  Level Houston Center
Wed 10:26:42 AM 29.6164 -95.3106 278° West 225 259 6,000 -240 Level Houston Center
Wed 10:27:22 AM 29.6222 -95.3464 281° West 226 260 5,500 -882 Descending Houston Center
Wed 10:28:24 AM 29.6444 -95.4092 292° West 219 252 4,500 -1,210 Descending Houston Center
Wed 10:29:26 AM 29.6961 -95.4731 313° West 225 259 3,000 -1,210 Descending Houston Center
Wed 10:30:28 AM 29.7522 -95.4447 24° Northeast 244 281 2,000 -484 Descending Houston Center
Wed 10:31:30 AM 29.7331 -95.3825 110° East 229 264 2,000 -339 Level Houston Center
Wed 10:32:32 AM 29.6958 -95.3392 135° Southeast 210 242 1,300 -677 Descending Houston Center
Wed 10:33:34 AM 29.6675 -95.3044 133° Southeast 178 205 600 -677 Descending Houston Center

Login

Don't have an account? Register now (free) for customized features, flight alerts, and more!